Nulato, AK (99765)

5:14 PM AKST on December 10, 2016 (GMT -0900)
Kaltag | | Change Station

Elev 200 ft 64.32 °N, 158.74 °W | Updated 21 minutes ago

Clear
Clear
-12 °F
Feels Like -12 °F
N
0
Wind Variable Wind from North

Today
High -- | Low -- °F
--% Chance of Precip.
Yesterday
High -- | Low -- °F
Precip. -- in
Pressure 30.46 in
Visibility 10.0 miles
Clouds Clear
Dew Point -17 °F
Humidity 78%
Rainfall 0.00 in
Snow Depth Not available.
11:23 AM 3:27 PM
Waxing Gibbous, 88% visible
METAR PAKV 110153Z AUTO 00000KT 10SM CLR M24/M27 A3044 RMK AO2 SLP315 I1000 T12441272 TSNO
Pressure 30.46 in
Visibility 10.0 miles
Clouds Clear
Dew Point -17 °F
Humidity 78%
Rainfall 0.00 in
Snow Depth Not available.
11:23 AM 3:27 PM
Waxing Gibbous, 88% visible
METAR PAKV 110153Z AUTO 00000KT 10SM CLR M24/M27 A3044 RMK AO2 SLP315 I1000 T12441272 TSNO

10-Day Weather Forecast

Almanac

Astronomy

Dec. 10, 2016 Rise Set
Actual Time
Civil Twilight
Nautical Twilight
Astronomical Twilight
Moon
Length of Visible Light
Length of Day
Tomorrow will be .
, % of the Moon is Illuminated

Today's Extremes

State Highs State Lows

Community

WunderPhotos

Upload Photos

1,956,690 photos uploaded!

WunderBlog® & News

Nearby

Air Quality

  Air Quality AQ Index Pollutant
Not available.

Snow Depth

Station Depth Elevation

Earthquake Activity

City Distance Mag. Time & Date
Minimum magnitude displayed is 2.5.

Coastal Water Temperatures

Place Temperature

Stations

Nearby Weather Stations

Station Location Temp. Windchill Dew Point Humidity Wind Precip. Elev Updated Type
                   

Watches & Warnings

There are currently no watches in effect.